»·PEaware :: N74KW KHQM-KAST

N74KW :: KHQM-KAST

FLIGHT INFORMATION

Flight Status: Arrived
Operator: Privately registered:
United States
More flights under this callsign
Pilot: Charles C. (26995)
Aircraft: MCDONNELL-DOUGLAS SKYTRAIN C-47
(DC3)
More flights by this aircraft type
Origin: KHQM Bowerman
United States
Destination: KAST Astoria Regl
United States
More flights between these airports :: More routes between these airports
Route: WAVLU V27 PULY
File this flight plan on PilotEdge
Remarks:
Altitude:
(Current/Filed)
5,000ft
Speed:
(Current/Filed)
150kts
Departed: 07-Sep-20 08:21 AM
Arrived: 07-Sep-20 09:06 AM
Distance/Time
Traveled:
49nm/0:45
Distance/Time
To Go:
Arrived

Flight Plot

Page will automatically refresh every two minutes.

Flight plan parsing failed; only flown route is shown


Map Options




Map Legend


Flown Route
Filed Route
Departure Airport
Arrival Airport
Navaid (VOR, NDB)
Fix

Horizontal Profiles

Position Reports

Time Latitude Longitude Heading Altitude Ground
Speed
07-Sep-20 08:03 46.973673 -123.927349 122 21ft 0kts
07-Sep-20 08:04 46.973673 -123.927349 122 21ft 0kts
07-Sep-20 08:05 46.973673 -123.927349 122 21ft 0kts
07-Sep-20 08:06 46.973673 -123.927349 122 21ft 0kts
07-Sep-20 08:07 46.973673 -123.927349 122 21ft 0kts
07-Sep-20 08:08 46.973673 -123.927349 122 21ft 0kts
07-Sep-20 08:09 46.973673 -123.927349 122 21ft 0kts
07-Sep-20 08:10 46.973673 -123.927349 122 21ft 0kts
07-Sep-20 08:11 46.973673 -123.927349 122 21ft 0kts
07-Sep-20 08:12 46.973673 -123.927349 122 21ft 0kts
07-Sep-20 08:13 46.973673 -123.927349 122 21ft 0kts
07-Sep-20 08:14 46.973673 -123.927349 122 21ft 0kts
07-Sep-20 08:15 46.973673 -123.927349 122 21ft 0kts
07-Sep-20 08:16 46.973350 -123.927098 164 21ft 0kts
07-Sep-20 08:17 46.972968 -123.931162 246 22ft 21kts
07-Sep-20 08:18 46.971546 -123.941842 267 23ft 30kts
07-Sep-20 08:19 46.970366 -123.946515 171 24ft 0kts
07-Sep-20 08:20 46.971190 -123.936855 80 23ft 95kts
07-Sep-20 08:21 46.960837 -123.900013 130 554ft 106kts
07-Sep-20 08:22 46.942486 -123.867803 110 1081ft 101kts
07-Sep-20 08:23 46.926041 -123.834979 129 1585ft 99kts
07-Sep-20 08:24 46.907739 -123.804887 129 2079ft 98kts
07-Sep-20 08:25 46.889200 -123.775272 146 2536ft 100kts
07-Sep-20 08:26 46.861072 -123.779638 194 2976ft 104kts
07-Sep-20 08:27 46.840717 -123.802957 269 3450ft 100kts
07-Sep-20 08:28 46.840755 -123.845474 270 3887ft 106kts
07-Sep-20 08:29 46.839496 -123.889818 249 4297ft 113kts
07-Sep-20 08:30 46.828188 -123.932727 249 4713ft 112kts
07-Sep-20 08:31 46.816670 -123.976603 249 4971ft 124kts
07-Sep-20 08:32 46.802825 -124.029045 241 4959ft 145kts
07-Sep-20 08:33 46.767259 -124.058093 205 4963ft 149kts
07-Sep-20 08:34 46.725942 -124.058914 176 4963ft 150kts
07-Sep-20 08:35 46.683752 -124.056083 175 4962ft 151kts
07-Sep-20 08:36 46.641795 -124.046984 168 4961ft 151kts
07-Sep-20 08:37 46.600645 -124.034619 165 4958ft 151kts
07-Sep-20 08:38 46.559365 -124.019654 165 4931ft 152kts
07-Sep-20 08:39 46.518160 -124.004744 164 4921ft 149kts
07-Sep-20 08:40 46.479137 -123.989864 147 4894ft 138kts
07-Sep-20 08:41 46.474892 -123.934160 84 4548ft 147kts
07-Sep-20 08:42 46.476747 -123.876093 90 4546ft 139kts
07-Sep-20 08:43 46.473961 -123.820183 97 4545ft 137kts
07-Sep-20 08:44 46.466613 -123.765997 104 4545ft 135kts
07-Sep-20 08:45 46.454507 -123.712435 111 4546ft 141kts
07-Sep-20 08:46 46.437344 -123.659939 118 4546ft 144kts
07-Sep-20 08:47 46.415428 -123.610512 125 4545ft 145kts
07-Sep-20 08:48 46.389005 -123.565177 133 4549ft 146kts
07-Sep-20 08:49 46.358663 -123.525154 140 4555ft 146kts
07-Sep-20 08:50 46.324967 -123.491225 148 4559ft 147kts
07-Sep-20 08:51 46.288412 -123.463920 155 4561ft 146kts
07-Sep-20 08:52 46.250376 -123.444063 163 4563ft 143kts
07-Sep-20 08:53 46.213355 -123.432020 170 4561ft 128kts
07-Sep-20 08:54 46.178926 -123.426735 176 4565ft 121kts
07-Sep-20 08:55 46.154639 -123.453185 239 4440ft 128kts
07-Sep-20 08:56 46.135898 -123.499607 239 4186ft 135kts
07-Sep-20 08:57 46.139633 -123.552743 277 4005ft 128kts
07-Sep-20 08:58 46.143028 -123.597805 274 3776ft 108kts
07-Sep-20 08:59 46.143293 -123.642596 274 3169ft 115kts
07-Sep-20 09:00 46.148346 -123.688598 274 2539ft 119kts
07-Sep-20 09:01 46.151771 -123.736291 274 1902ft 119kts
07-Sep-20 09:02 46.153932 -123.782833 272 1261ft 110kts
07-Sep-20 09:04 46.156288 -123.825110 272 660ft 99kts
07-Sep-20 09:05 46.159134 -123.863425 266 149ft 91kts
07-Sep-20 09:06 46.159922 -123.885207 44 19ft 4kts
07-Sep-20 09:07 46.160736 -123.884267 230 19ft 0kts
07-Sep-20 09:08 46.158588 -123.885344 121 18ft 16kts
07-Sep-20 09:09 46.156016 -123.881629 321 18ft 0kts
07-Sep-20 09:10 46.156016 -123.881629 321 18ft 0kts
07-Sep-20 09:11 46.156016 -123.881629 321 18ft 0kts
07-Sep-20 09:12 46.156016 -123.881629 321 18ft 0kts
07-Sep-20 09:13 46.156016 -123.881629 321 18ft 0kts
07-Sep-20 09:14 46.156016 -123.881629 321 18ft 0kts
07-Sep-20 09:15 46.156016 -123.881629 321 18ft 0kts
07-Sep-20 09:16 46.156016 -123.881629 321 18ft 0kts

Navigation Log

Ident Type
Flight plan parsing failed, navigation log unavailable